createdAt,value
2022-11-18T00:53:41.664Z,4.30
2022-11-18T00:55:13.465Z,5.50
2022-11-18T00:56:45.230Z,4.90
2022-11-18T00:58:17.451Z,6.10
2022-11-18T00:59:49.299Z,5.80
2022-11-18T01:01:21.238Z,5.30
2022-11-18T01:02:54.675Z,4.50
2022-11-18T01:04:26.426Z,5.30
2022-11-18T01:05:58.544Z,5.30
2022-11-18T01:07:30.428Z,4.60
2022-11-18T01:09:02.217Z,4.40
2022-11-18T01:10:35.654Z,3.70
2022-11-18T01:12:28.757Z,4.60
2022-11-18T01:14:00.576Z,4.50
2022-11-18T01:15:42.910Z,5.20
2022-11-18T01:17:14.803Z,5.10
2022-11-18T01:18:47.850Z,4.80
2022-11-18T01:20:19.661Z,6.20
2022-11-18T01:21:51.753Z,6.70
2022-11-18T01:23:23.722Z,5.30
2022-11-18T01:24:55.543Z,5.20
2022-11-18T01:26:27.299Z,7.20
2022-11-18T01:27:59.143Z,4.80
2022-11-18T01:29:31.191Z,5.10
2022-11-18T01:31:09.607Z,5.90
2022-11-18T01:32:41.342Z,5.90
2022-11-18T01:34:13.127Z,4.80
2022-11-18T01:35:45.338Z,4.20
2022-11-18T01:37:17.155Z,4.30
2022-11-18T01:38:50.826Z,2.90
2022-11-18T01:40:22.621Z,4.30
2022-11-18T01:41:54.332Z,5.50
2022-11-18T01:43:26.117Z,3.70
2022-11-18T01:45:16.652Z,5.30
2022-11-18T01:46:48.408Z,4.40
2022-11-18T01:48:25.206Z,4.20
2022-11-18T01:49:59.256Z,6.20
2022-11-18T01:51:44.671Z,5.30
2022-11-18T01:53:26.885Z,6.30
2022-11-18T01:55:16.904Z,7.70
2022-11-18T01:56:54.847Z,3.70
2022-11-18T01:58:37.717Z,5.00
2022-11-18T02:00:10.720Z,4.20
2022-11-18T02:01:42.702Z,5.80
2022-11-18T02:03:17.654Z,7.50
2022-11-18T02:04:53.145Z,4.40
2022-11-18T02:06:27.431Z,5.10
2022-11-18T02:08:03.553Z,5.70
2022-11-18T02:09:38.064Z,6.20
2022-11-18T02:11:33.168Z,6.30
2022-11-18T02:13:07.642Z,5.90
2022-11-18T02:14:45.830Z,5.50
2022-11-18T02:16:26.988Z,4.60
2022-11-18T02:18:27.065Z,6.60
2022-11-18T02:20:13.962Z,6.50
2022-11-18T02:22:31.205Z,5.90
2022-11-18T02:24:21.071Z,3.80
2022-11-18T02:26:32.974Z,7.60
2022-11-18T02:28:31.662Z,4.10
2022-11-18T02:30:10.776Z,5.20
2022-11-18T02:31:58.840Z,4.00
2022-11-18T02:33:55.568Z,5.90
2022-11-18T02:36:30.094Z,3.40
2022-11-18T02:38:08.491Z,3.70
2022-11-18T02:39:59.817Z,3.30
2022-11-18T02:41:36.626Z,5.80
2022-11-18T02:43:34.773Z,4.50
2022-11-18T02:45:13.285Z,4.10
2022-11-18T02:46:55.986Z,5.40
2022-11-18T02:48:32.596Z,3.80
2022-11-18T02:50:10.732Z,5.30
2022-11-18T02:51:45.481Z,2.10
2022-11-18T02:53:21.276Z,4.60
2022-11-18T02:54:55.619Z,4.40
2022-11-18T02:56:28.378Z,3.20
2022-11-18T02:58:03.558Z,6.10
2022-11-18T02:59:36.207Z,3.80
2022-11-18T03:01:20.617Z,3.30
2022-11-18T03:02:52.453Z,3.10
2022-11-18T03:04:27.187Z,3.90
2022-11-18T03:06:08.622Z,4.00
2022-11-18T03:07:50.461Z,4.30
2022-11-18T03:09:32.740Z,4.70
2022-11-18T03:11:19.246Z,5.30
2022-11-18T03:13:07.090Z,4.40
2022-11-18T03:15:00.006Z,3.50
2022-11-18T03:16:51.940Z,3.50
2022-11-18T03:18:39.768Z,3.90
2022-11-18T03:20:17.880Z,5.80
2022-11-18T03:22:24.394Z,9.80
2022-11-18T03:24:17.822Z,6.20
2022-11-18T03:26:14.303Z,7.40
2022-11-18T03:27:49.072Z,4.80
2022-11-18T03:29:31.243Z,3.10
2022-11-18T03:31:12.248Z,3.50
2022-11-18T03:33:10.494Z,6.10
2022-11-18T03:34:50.459Z,3.90
2022-11-18T03:36:27.889Z,5.10
2022-11-18T03:38:22.377Z,5.90
2022-11-18T03:40:03.112Z,3.60
2022-11-18T03:41:44.461Z,3.50
2022-11-18T03:43:23.608Z,4.90
2022-11-18T03:45:06.147Z,5.60
2022-11-18T03:46:50.569Z,5.70
2022-11-18T03:48:34.504Z,3.80
2022-11-18T03:50:18.498Z,3.20
2022-11-18T03:51:58.410Z,3.90
2022-11-18T03:53:36.408Z,3.90
2022-11-18T03:55:22.124Z,4.20
2022-11-18T03:57:02.592Z,3.10
2022-11-18T03:58:59.210Z,5.20
2022-11-18T04:00:40.592Z,5.70
2022-11-18T04:02:21.051Z,6.10
2022-11-18T04:03:52.896Z,5.30
2022-11-18T04:05:25.268Z,5.50
2022-11-18T04:07:09.932Z,6.00
2022-11-18T04:08:50.628Z,5.70
2022-11-18T04:10:33.418Z,6.60
2022-11-18T04:12:13.449Z,4.30
2022-11-18T04:13:45.670Z,5.10
2022-11-18T04:15:17.849Z,4.30
2022-11-18T04:16:55.362Z,6.50
2022-11-18T04:18:27.348Z,6.90
2022-11-18T04:19:59.165Z,5.90
2022-11-18T04:21:31.199Z,7.80
2022-11-18T04:23:04.569Z,5.20
2022-11-18T04:24:36.793Z,6.00
2022-11-18T04:26:11.688Z,6.30
2022-11-18T04:27:43.528Z,9.20
2022-11-18T04:29:15.395Z,4.60
2022-11-18T04:30:47.525Z,7.40
2022-11-18T04:32:19.243Z,10.30
2022-11-18T04:33:50.924Z,7.50
2022-11-18T04:35:22.978Z,7.30
2022-11-18T04:36:56.329Z,7.70
2022-11-18T04:38:28.045Z,5.00
2022-11-18T04:39:59.774Z,7.70
2022-11-18T04:41:51.299Z,8.30
2022-11-18T04:43:23.115Z,9.40
2022-11-18T04:44:54.887Z,7.50
2022-11-18T04:46:26.662Z,7.00
2022-11-18T04:48:03.253Z,9.40
2022-11-18T04:49:36.338Z,6.00
2022-11-18T04:51:08.089Z,10.90
2022-11-18T04:52:39.856Z,9.80
2022-11-18T04:54:12.704Z,8.00
2022-11-18T04:55:44.421Z,7.10
2022-11-18T04:57:16.184Z,8.70
2022-11-18T04:58:47.967Z,7.70
2022-11-18T05:00:21.483Z,8.00
2022-11-18T05:01:53.757Z,6.20
2022-11-18T05:03:25.460Z,7.20
2022-11-18T05:04:57.184Z,7.50
2022-11-18T05:06:30.081Z,7.10
2022-11-18T05:08:01.906Z,7.40
2022-11-18T05:09:34.388Z,7.90
2022-11-18T05:11:26.342Z,7.00
2022-11-18T05:12:58.220Z,6.60
2022-11-18T05:14:31.115Z,6.00
2022-11-18T05:16:02.838Z,6.50
2022-11-18T05:17:36.038Z,6.60
2022-11-18T05:19:09.756Z,7.30
2022-11-18T05:20:42.938Z,9.30
2022-11-18T05:22:15.584Z,8.80
2022-11-18T05:23:48.587Z,7.70
2022-11-18T05:25:20.405Z,7.40
2022-11-18T05:26:54.021Z,7.70
2022-11-18T05:28:26.728Z,7.00
2022-11-18T05:29:58.646Z,5.70
2022-11-18T05:31:30.553Z,7.70
2022-11-18T05:33:02.513Z,7.40
2022-11-18T05:34:34.431Z,6.70
2022-11-18T05:36:13.381Z,10.00
2022-11-18T05:37:45.131Z,8.00
2022-11-18T05:39:17.606Z,10.40
2022-11-18T05:40:49.579Z,5.40
2022-11-18T05:42:40.079Z,6.90
2022-11-18T05:44:12.134Z,6.50
2022-11-18T05:45:44.195Z,8.80
2022-11-18T05:48:22.147Z,8.00
2022-11-18T05:49:54.352Z,7.10
2022-11-18T05:51:26.616Z,9.90
2022-11-18T05:52:58.507Z,10.20
2022-11-18T05:54:30.972Z,9.10
2022-11-18T05:56:20.461Z,8.90
2022-11-18T05:57:52.287Z,10.70
2022-11-18T05:59:24.421Z,8.60
2022-11-18T06:01:03.528Z,8.60
2022-11-18T06:02:35.534Z,7.80
2022-11-18T06:04:16.955Z,7.80
2022-11-18T06:05:49.405Z,10.30
2022-11-18T06:07:47.318Z,9.00
2022-11-18T06:09:30.338Z,8.60
2022-11-18T06:11:02.545Z,7.40
2022-11-18T06:12:45.959Z,5.20
2022-11-18T06:14:37.044Z,7.80
2022-11-18T06:16:09.125Z,8.10
2022-11-18T06:18:00.765Z,7.00
2022-11-18T06:19:34.283Z,7.70
2022-11-18T06:21:06.414Z,8.50
2022-11-18T06:22:44.959Z,8.30
2022-11-18T06:24:18.791Z,7.20
2022-11-18T06:25:50.909Z,8.50
2022-11-18T06:27:22.932Z,8.50
2022-11-18T06:28:56.613Z,10.90
2022-11-18T06:30:28.589Z,8.70
2022-11-18T06:32:00.654Z,6.90
2022-11-18T06:33:32.521Z,7.30
2022-11-18T06:35:05.239Z,6.60
2022-11-18T06:36:37.696Z,7.30
2022-11-18T06:38:09.764Z,7.30
2022-11-18T06:39:42.080Z,7.00
2022-11-18T06:41:13.833Z,7.30
2022-11-18T06:43:04.424Z,9.70
2022-11-18T06:44:36.279Z,6.80
2022-11-18T06:46:34.632Z,6.50
2022-11-18T06:48:06.788Z,8.10
2022-11-18T06:49:38.556Z,7.60
2022-11-18T06:51:11.234Z,6.70
2022-11-18T06:52:43.015Z,8.30
2022-11-18T06:54:15.738Z,7.40
2022-11-18T06:55:47.877Z,7.80
2022-11-18T06:57:19.730Z,9.50
2022-11-18T06:58:58.102Z,8.40
2022-11-18T07:00:29.992Z,10.20
2022-11-18T07:02:01.857Z,8.20
2022-11-18T07:03:33.769Z,8.20
2022-11-18T07:05:06.878Z,7.50
2022-11-18T07:06:38.689Z,10.10
2022-11-18T07:08:10.415Z,8.80
2022-11-18T07:09:42.248Z,7.40
2022-11-18T07:11:18.300Z,7.80
2022-11-18T07:12:50.121Z,9.40
2022-11-18T07:14:24.188Z,8.50
2022-11-18T07:15:56.705Z,10.20
2022-11-18T07:17:31.200Z,10.00
2022-11-18T07:19:14.535Z,9.70
2022-11-18T07:20:46.440Z,11.60
2022-11-18T07:22:18.512Z,11.50
2022-11-18T07:23:50.317Z,16.40
2022-11-18T07:38:23.442Z,21.80
2022-11-18T07:39:55.198Z,22.80
2022-11-18T07:41:30.331Z,21.70
2022-11-18T07:43:02.060Z,21.20
2022-11-18T07:44:33.822Z,24.40
2022-11-18T07:46:16.035Z,26.50
2022-11-18T07:47:47.892Z,25.00
2022-11-18T07:49:19.951Z,28.80
2022-11-18T07:50:52.708Z,30.40
2022-11-18T07:52:24.856Z,29.30
2022-11-18T07:53:56.973Z,24.00
2022-11-18T07:55:32.157Z,27.80
2022-11-18T07:57:04.227Z,26.50
2022-11-18T07:58:37.392Z,30.00
2022-11-18T08:00:10.523Z,33.40
2022-11-18T08:01:44.857Z,33.80
2022-11-18T08:03:16.727Z,30.80
2022-11-18T08:04:48.672Z,29.90
2022-11-18T08:06:20.912Z,34.40
2022-11-18T08:07:53.046Z,33.40
2022-11-18T08:09:25.307Z,34.70
2022-11-18T08:11:06.049Z,27.00
2022-11-18T08:12:37.819Z,26.20
2022-11-18T08:14:09.577Z,24.70
2022-11-18T08:15:43.674Z,20.90
2022-11-18T08:17:15.405Z,18.00
2022-11-18T08:18:47.571Z,18.70
2022-11-18T08:20:23.056Z,18.40
2022-11-18T08:21:54.859Z,20.40
2022-11-18T08:23:32.423Z,17.20
2022-11-18T08:25:06.934Z,17.30
2022-11-18T08:26:38.886Z,14.40
2022-11-18T08:28:12.661Z,14.50
2022-11-18T08:29:44.463Z,11.90
2022-11-18T08:31:24.792Z,12.10
2022-11-18T08:32:56.699Z,12.40
2022-11-18T08:34:28.526Z,11.40
2022-11-18T08:36:10.998Z,12.70
2022-11-18T08:37:42.895Z,12.20
2022-11-18T08:39:15.170Z,7.90
2022-11-18T08:40:48.257Z,8.90
2022-11-18T08:42:24.516Z,10.00
2022-11-18T08:43:56.861Z,8.90
2022-11-18T08:45:28.715Z,9.30
2022-11-18T08:47:03.041Z,8.70
2022-11-18T08:48:34.959Z,9.30
2022-11-18T08:50:10.400Z,7.20
2022-11-18T08:51:42.258Z,7.90
2022-11-18T08:53:15.928Z,9.00
2022-11-18T08:54:47.657Z,8.30
2022-11-18T08:56:23.009Z,8.00
2022-11-18T08:57:54.779Z,7.00
2022-11-18T08:59:27.319Z,6.30
2022-11-18T09:01:04.246Z,7.80
2022-11-18T09:02:37.130Z,7.30
2022-11-18T09:04:10.446Z,6.50
2022-11-18T09:05:42.378Z,7.30
2022-11-18T09:07:14.503Z,8.00
2022-11-18T09:08:47.314Z,5.90
2022-11-18T09:10:19.231Z,7.10
2022-11-18T09:11:51.064Z,5.30
2022-11-18T09:13:49.791Z,5.90
2022-11-18T09:15:17.563Z,6.20
2022-11-18T09:16:49.763Z,7.50
2022-11-18T09:18:21.677Z,6.80
2022-11-18T09:19:53.446Z,8.20
2022-11-18T09:21:26.708Z,6.70
2022-11-18T09:22:58.540Z,7.10
2022-11-18T09:24:30.319Z,6.80
2022-11-18T09:26:09.600Z,7.80
2022-11-18T09:27:41.806Z,7.60
2022-11-18T09:29:13.709Z,6.30
2022-11-18T09:30:45.489Z,7.60
2022-11-18T09:32:17.374Z,7.60
2022-11-18T09:33:49.117Z,6.50
2022-11-18T09:35:20.899Z,7.50
2022-11-18T09:36:57.014Z,7.10
2022-11-18T09:39:26.687Z,10.10
2022-11-18T09:41:11.103Z,5.80
2022-11-18T09:43:26.544Z,6.00
2022-11-18T09:45:24.718Z,7.30
2022-11-18T09:47:36.038Z,7.30
2022-11-18T09:49:39.066Z,8.50
2022-11-18T09:51:13.390Z,4.90
2022-11-18T09:52:54.334Z,5.30
2022-11-18T09:54:46.305Z,8.20
2022-11-18T09:56:20.754Z,8.30
2022-11-18T09:57:58.881Z,7.70
2022-11-18T09:59:33.839Z,9.20
2022-11-18T10:01:18.100Z,9.40
2022-11-18T10:03:16.046Z,8.70
2022-11-18T10:04:49.284Z,8.90
2022-11-18T10:06:32.573Z,6.80
2022-11-18T10:08:38.165Z,7.90
2022-11-18T10:10:24.010Z,8.10
2022-11-18T10:12:26.614Z,9.80
2022-11-18T10:14:22.429Z,7.80
2022-11-18T10:16:05.059Z,7.90
2022-11-18T10:18:05.306Z,8.00
2022-11-18T10:19:55.186Z,8.00
2022-11-18T10:21:54.533Z,7.30
2022-11-18T10:23:50.755Z,7.80
2022-11-18T10:25:23.041Z,8.10
2022-11-18T10:27:02.657Z,10.30
2022-11-18T10:28:36.451Z,6.60
2022-11-18T10:30:23.380Z,8.20
2022-11-18T10:32:22.835Z,10.70
2022-11-18T10:34:02.920Z,8.70
2022-11-18T10:36:38.342Z,7.90
2022-11-18T10:38:13.283Z,8.20
2022-11-18T10:40:01.980Z,7.80
2022-11-18T10:41:52.591Z,8.40
2022-11-18T10:43:54.900Z,10.40
2022-11-18T10:45:33.706Z,8.00
2022-11-18T10:47:27.852Z,7.60
2022-11-18T10:49:09.537Z,7.40
2022-11-18T10:52:55.681Z,7.60
2022-11-18T10:54:29.611Z,8.20
2022-11-18T10:56:06.103Z,7.00
2022-11-18T10:57:45.931Z,5.80
2022-11-18T10:59:33.229Z,5.80
2022-11-18T11:01:47.361Z,7.60
2022-11-18T11:03:30.401Z,6.70
2022-11-18T11:05:26.159Z,8.20
2022-11-18T11:06:59.756Z,9.20
2022-11-18T11:08:37.309Z,9.60
2022-11-18T11:10:16.638Z,9.70
2022-11-18T11:12:23.044Z,8.50
2022-11-18T11:14:28.864Z,9.30
2022-11-18T11:16:12.213Z,7.70
2022-11-18T11:18:21.889Z,6.50
2022-11-18T11:20:24.966Z,6.90
2022-11-18T11:21:58.103Z,7.70
2022-11-18T11:23:35.457Z,7.60
2022-11-18T11:28:53.616Z,6.40
2022-11-18T11:30:27.143Z,7.60
2022-11-18T11:32:19.864Z,8.00
2022-11-18T11:34:25.903Z,8.00
2022-11-18T11:36:31.898Z,6.80
2022-11-18T11:38:58.626Z,6.70
2022-11-18T11:41:01.311Z,7.50
2022-11-18T11:43:15.288Z,8.20
2022-11-18T11:45:11.223Z,8.50
2022-11-18T11:47:20.214Z,6.90
2022-11-18T11:49:18.848Z,6.90
2022-11-18T11:51:12.046Z,7.40
2022-11-18T11:53:17.781Z,6.10
2022-11-18T11:55:03.041Z,6.50
2022-11-18T11:56:44.745Z,5.90
2022-11-18T11:59:02.895Z,5.70
2022-11-18T12:00:46.338Z,6.10
2022-11-18T12:02:36.236Z,5.70
2022-11-18T12:04:26.268Z,7.50
2022-11-18T12:05:58.105Z,5.10
2022-11-18T12:07:42.662Z,8.70
2022-11-18T12:09:34.975Z,7.10
2022-11-18T12:11:27.368Z,6.20
2022-11-18T12:13:20.753Z,6.70
2022-11-18T12:15:21.023Z,8.00
2022-11-18T12:17:02.030Z,6.00
2022-11-18T12:19:18.513Z,4.30
2022-11-18T12:20:54.955Z,7.40
2022-11-18T12:23:13.903Z,7.60
2022-11-18T12:24:45.805Z,7.50
2022-11-18T12:26:37.488Z,6.60
2022-11-18T12:28:09.349Z,6.20
2022-11-18T12:29:54.210Z,6.80
2022-11-18T12:31:32.526Z,8.50
2022-11-18T12:33:04.752Z,6.70
2022-11-18T12:34:44.855Z,4.90
2022-11-18T12:36:42.558Z,6.60
2022-11-18T12:38:33.068Z,5.30
2022-11-18T12:40:05.872Z,7.30
2022-11-18T12:41:59.123Z,6.60
2022-11-18T12:43:48.922Z,5.70
2022-11-18T12:45:43.539Z,8.20
2022-11-18T12:47:41.537Z,5.20
2022-11-18T12:49:22.355Z,7.60
2022-11-18T12:51:01.646Z,7.00
2022-11-18T12:52:33.265Z,4.80
2022-11-18T12:54:51.686Z,8.30
2022-11-18T12:56:37.219Z,10.40
2022-11-18T13:01:06.762Z,8.80
2022-11-18T13:02:38.850Z,7.40
2022-11-18T13:04:22.618Z,7.20
2022-11-18T13:06:20.046Z,6.80
2022-11-18T13:08:14.564Z,4.90
2022-11-18T13:09:46.517Z,10.20
2022-11-18T13:11:38.358Z,7.30
2022-11-18T13:13:37.045Z,7.50
2022-11-18T13:15:31.171Z,7.10
2022-11-18T13:17:42.831Z,6.80
2022-11-18T13:19:25.012Z,6.80
2022-11-18T13:21:22.711Z,6.50
2022-11-18T13:23:38.199Z,6.70
2022-11-18T13:25:26.570Z,6.60
2022-11-18T13:26:59.656Z,6.90
2022-11-18T13:28:50.491Z,7.30
2022-11-18T13:30:22.397Z,5.10
2022-11-18T13:32:25.578Z,6.10
2022-11-18T14:43:42.874Z,7.20
2022-11-18T14:45:14.768Z,7.50
2022-11-18T14:46:57.103Z,5.00
2022-11-18T14:48:32.973Z,6.80
2022-11-18T14:50:13.267Z,6.10
2022-11-18T14:51:45.727Z,5.30
2022-11-18T14:53:17.652Z,7.30
2022-11-18T14:54:50.446Z,8.80
2022-11-18T14:56:31.779Z,4.60
2022-11-18T14:58:03.774Z,6.40
2022-11-18T14:59:35.498Z,6.20
2022-11-18T15:01:13.930Z,7.90
2022-11-18T15:02:46.077Z,6.00
2022-11-18T15:04:18.518Z,6.40
2022-11-18T15:05:51.056Z,4.80
2022-11-18T15:07:24.052Z,4.40
2022-11-18T15:08:56.189Z,5.50
2022-11-18T15:10:29.208Z,10.30
2022-11-18T15:12:01.056Z,4.60
2022-11-18T15:13:32.733Z,7.10
2022-11-18T15:15:04.980Z,6.80
2022-11-18T15:16:37.010Z,5.20
2022-11-18T15:18:09.488Z,6.60
2022-11-18T15:19:41.760Z,7.00
2022-11-18T15:21:14.503Z,6.10
2022-11-18T15:22:46.441Z,5.30
2022-11-18T15:24:18.496Z,7.60
2022-11-18T15:25:50.577Z,8.60
2022-11-18T15:27:22.398Z,8.30
2022-11-18T15:28:57.445Z,10.10
2022-11-18T15:30:29.235Z,9.80
2022-11-18T15:32:01.074Z,8.00
2022-11-18T15:33:32.891Z,7.80
2022-11-18T15:35:05.090Z,12.30
2022-11-18T15:36:36.908Z,8.00
2022-11-18T15:38:11.957Z,7.80
2022-11-18T15:39:44.374Z,6.90
2022-11-18T15:41:23.513Z,8.10
2022-11-18T15:42:56.706Z,6.50
2022-11-18T15:44:28.644Z,7.10
2022-11-18T15:46:00.434Z,7.30
2022-11-18T15:47:32.395Z,8.60
2022-11-18T15:49:04.496Z,7.70
2022-11-18T15:50:36.378Z,9.50
2022-11-18T15:52:11.149Z,8.10
2022-11-18T15:53:43.559Z,12.20
2022-11-18T15:55:15.805Z,8.50
2022-11-18T15:56:47.694Z,10.60
2022-11-18T15:58:19.408Z,9.70
2022-11-18T15:59:51.177Z,12.10
2022-11-18T16:01:27.750Z,9.70
2022-11-18T16:02:59.605Z,12.10
2022-11-18T16:04:31.455Z,11.60
2022-11-18T16:06:04.004Z,16.70
2022-11-18T17:18:08.170Z,19.70
2022-11-18T17:19:39.977Z,19.60
2022-11-18T17:21:18.635Z,19.50
2022-11-18T17:22:53.021Z,20.00
2022-11-18T17:24:24.898Z,21.90
2022-11-18T17:25:57.057Z,21.10
2022-11-18T17:27:28.759Z,20.40
2022-11-18T17:29:02.708Z,20.80
2022-11-18T17:30:34.547Z,19.10
2022-11-18T17:32:06.375Z,18.60
2022-11-18T17:33:39.290Z,20.50
2022-11-18T17:35:11.105Z,17.90
2022-11-18T17:36:43.223Z,19.70
2022-11-18T17:38:15.075Z,17.30
2022-11-18T17:39:47.805Z,14.10
2022-11-18T17:41:44.254Z,19.60
2022-11-18T17:43:16.035Z,20.40
2022-11-18T17:44:47.814Z,20.60
2022-11-18T17:46:20.935Z,18.70
2022-11-18T17:47:56.075Z,20.20
2022-11-18T17:49:27.828Z,17.70
2022-11-18T17:51:06.394Z,18.90
2022-11-18T17:52:38.153Z,16.90
2022-11-18T17:54:10.424Z,18.40
2022-11-18T17:55:48.860Z,15.90
2022-11-18T17:57:20.612Z,19.20
2022-11-18T17:58:53.700Z,19.70
2022-11-18T18:00:26.478Z,16.90
2022-11-18T18:01:59.766Z,18.50
2022-11-18T18:03:32.203Z,20.00
2022-11-18T18:05:04.334Z,17.20
2022-11-18T18:06:36.388Z,21.10
2022-11-18T18:08:10.716Z,18.10
2022-11-18T18:09:42.552Z,17.60
2022-11-18T18:11:19.477Z,17.70
2022-11-18T18:13:10.087Z,20.40
2022-11-18T18:14:43.464Z,18.00
2022-11-18T18:16:16.313Z,20.00
2022-11-18T18:17:51.078Z,19.80
2022-11-18T18:19:24.214Z,20.50
2022-11-18T18:20:56.928Z,21.80
2022-11-18T18:22:28.669Z,20.80
2022-11-18T18:24:00.678Z,19.10
2022-11-18T18:25:33.964Z,22.50
2022-11-18T18:27:05.806Z,23.00
2022-11-18T18:28:37.815Z,20.40
2022-11-18T18:30:10.934Z,19.90
2022-11-18T18:31:42.776Z,21.20
2022-11-18T18:33:14.513Z,20.90
2022-11-18T18:34:46.346Z,23.00
2022-11-18T18:36:21.249Z,21.30
2022-11-18T18:37:53.043Z,23.10
2022-11-18T18:39:24.789Z,22.30
2022-11-18T18:41:08.674Z,19.70
2022-11-18T18:42:40.557Z,22.70
2022-11-18T18:44:18.110Z,21.20
2022-11-18T18:46:09.009Z,17.50
2022-11-18T18:47:40.912Z,19.90
2022-11-18T18:49:16.338Z,24.90
2022-11-18T18:50:48.076Z,19.80
2022-11-18T18:52:20.588Z,24.70
2022-11-18T18:53:53.304Z,25.70
2022-11-18T18:55:25.092Z,26.00
2022-11-18T18:56:56.957Z,23.70
2022-11-18T18:58:28.985Z,23.40
2022-11-18T19:00:00.798Z,26.50
2022-11-18T19:01:33.741Z,26.20
2022-11-18T19:03:05.954Z,27.40
2022-11-18T19:04:39.574Z,27.40
2022-11-18T19:06:48.748Z,24.50
2022-11-18T19:08:07.616Z,27.40
2022-11-18T19:09:39.648Z,26.30
2022-11-18T19:11:31.560Z,25.00
2022-11-18T19:13:03.780Z,30.00
2022-11-18T19:14:35.628Z,27.80
2022-11-18T19:16:08.164Z,27.40
2022-11-18T19:17:41.361Z,22.30
2022-11-18T19:19:17.805Z,27.50
2022-11-18T19:20:50.447Z,26.20
2022-11-18T19:22:22.242Z,24.90
2022-11-18T19:23:55.180Z,24.10
2022-11-18T19:25:27.158Z,33.50
2022-11-18T19:26:59.631Z,32.00
2022-11-18T19:28:31.346Z,40.40
2022-11-18T19:30:03.801Z,40.60
2022-11-18T19:31:35.502Z,32.40
2022-11-18T19:33:07.375Z,32.30
2022-11-18T19:34:39.185Z,32.40
2022-11-18T19:36:11.191Z,30.90
2022-11-18T19:37:43.270Z,30.30
2022-11-18T19:39:15.040Z,35.60
2022-11-18T19:40:46.835Z,34.70
2022-11-18T19:42:22.974Z,28.60
2022-11-18T19:43:55.028Z,27.80
2022-11-18T19:45:26.793Z,31.30
2022-11-18T19:46:59.139Z,23.70
2022-11-18T20:01:23.579Z,31.80
2022-11-18T20:02:55.447Z,29.90
2022-11-18T20:04:27.222Z,26.10
2022-11-18T20:06:02.688Z,29.30
2022-11-18T20:07:34.821Z,26.80
2022-11-18T20:09:08.740Z,28.80
2022-11-18T20:10:40.529Z,24.30
2022-11-18T20:12:12.747Z,24.90
2022-11-18T20:13:46.000Z,20.70
2022-11-18T20:15:17.849Z,19.50
2022-11-18T20:16:53.154Z,22.10
2022-11-18T20:18:25.287Z,20.80
2022-11-18T20:19:57.048Z,20.80
2022-11-18T20:21:31.458Z,18.20
2022-11-18T20:23:04.807Z,23.40
2022-11-18T20:24:36.632Z,25.00
2022-11-18T20:26:12.602Z,17.20
2022-11-18T20:27:44.522Z,23.90
2022-11-18T20:29:16.688Z,25.20
2022-11-18T20:30:55.231Z,24.50
2022-11-18T20:32:26.963Z,22.90
2022-11-18T20:33:58.675Z,23.20
2022-11-18T20:35:30.384Z,19.50
2022-11-18T20:37:02.147Z,22.20
2022-11-18T20:38:34.487Z,18.10
2022-11-18T20:40:07.451Z,18.00
2022-11-18T20:41:39.239Z,17.90
2022-11-18T20:43:12.004Z,17.70
2022-11-18T20:44:43.727Z,17.00
2022-11-18T20:46:20.784Z,17.50
2022-11-18T20:47:52.994Z,15.20
2022-11-18T20:49:24.836Z,15.50
2022-11-18T20:50:56.638Z,17.70
2022-11-18T20:52:28.408Z,17.10
2022-11-18T20:54:00.621Z,18.40
2022-11-18T20:55:37.912Z,16.90
2022-11-18T20:57:09.734Z,17.90
2022-11-18T20:58:42.084Z,20.00
2022-11-18T21:00:14.500Z,22.50
2022-11-18T21:01:46.658Z,18.30
2022-11-18T21:03:20.658Z,19.00
2022-11-18T21:04:52.390Z,17.80
2022-11-18T21:06:29.021Z,14.30
2022-11-18T21:08:00.847Z,16.60
2022-11-18T21:09:33.454Z,12.80
2022-11-18T21:11:09.613Z,10.40
2022-11-18T21:13:01.346Z,9.60
2022-11-18T21:14:33.112Z,11.30
2022-11-18T21:16:05.367Z,10.70
2022-11-18T21:17:37.247Z,13.20
2022-11-18T21:19:10.301Z,10.10
2022-11-18T21:21:01.111Z,10.10
2022-11-18T21:22:32.858Z,12.70
2022-11-18T21:24:05.488Z,16.40
2022-11-18T21:25:38.801Z,12.70
2022-11-18T21:27:10.536Z,12.80
2022-11-18T21:28:42.350Z,10.90
2022-11-18T21:30:14.334Z,10.20
2022-11-18T21:31:49.596Z,10.60
2022-11-18T21:33:21.279Z,9.70
2022-11-18T21:34:53.209Z,10.50
2022-11-18T21:36:30.805Z,11.90
2022-11-18T21:38:04.438Z,11.50
2022-11-18T21:39:36.618Z,11.40
2022-11-18T21:41:08.755Z,11.50
2022-11-18T21:42:40.815Z,10.80
2022-11-18T21:44:14.278Z,11.70
2022-11-18T21:45:46.005Z,10.40
2022-11-18T21:47:17.777Z,13.10
2022-11-18T21:48:49.878Z,12.50
2022-11-18T21:50:21.635Z,12.00
2022-11-18T21:51:53.455Z,10.70
2022-11-18T21:53:25.505Z,13.10
2022-11-18T21:54:57.303Z,10.30
2022-11-18T21:56:32.485Z,11.20
2022-11-18T21:58:04.373Z,11.20
2022-11-18T21:59:36.776Z,11.60
2022-11-18T22:01:14.361Z,13.80
2022-11-18T22:02:46.100Z,11.90
2022-11-18T22:04:36.598Z,12.00
2022-11-18T22:06:12.100Z,12.90
2022-11-18T22:07:43.790Z,9.40
2022-11-18T22:09:15.513Z,9.20
2022-11-18T22:10:47.278Z,12.20
2022-11-18T22:12:19.421Z,8.10
2022-11-18T22:13:56.378Z,9.60
2022-11-18T22:15:32.352Z,10.10
2022-11-18T22:17:06.190Z,10.30
2022-11-18T22:18:42.278Z,8.60
2022-11-18T22:20:14.623Z,9.20
2022-11-18T22:21:46.318Z,10.30
2022-11-18T22:23:20.146Z,9.40
2022-11-18T22:24:51.880Z,8.00
2022-11-18T22:26:23.645Z,8.50
2022-11-18T22:27:55.471Z,8.20
2022-11-18T22:29:27.322Z,9.60
2022-11-18T22:31:10.019Z,9.00
2022-11-18T22:32:43.516Z,8.30
2022-11-18T22:34:15.292Z,8.70
2022-11-18T22:35:47.116Z,7.30
2022-11-18T22:37:18.958Z,6.80
2022-11-18T22:38:52.344Z,8.20
2022-11-18T22:40:24.131Z,7.60
2022-11-18T22:42:14.280Z,8.00
2022-11-18T22:43:45.942Z,8.10
2022-11-18T22:45:17.754Z,5.90
2022-11-18T22:46:49.449Z,5.90
2022-11-18T22:48:21.240Z,6.90
2022-11-18T22:49:56.354Z,7.50
2022-11-18T22:51:28.654Z,6.90
2022-11-18T22:53:00.351Z,7.60
2022-11-18T22:54:40.513Z,7.20
2022-11-18T22:56:15.278Z,9.00
2022-11-18T22:57:46.999Z,7.10
2022-11-18T22:59:19.102Z,6.80
2022-11-18T23:00:50.962Z,8.20
2022-11-18T23:02:22.713Z,7.30
2022-11-18T23:03:54.677Z,8.20
2022-11-18T23:05:26.452Z,7.70
2022-11-18T23:06:58.324Z,7.70
2022-11-18T23:08:37.260Z,9.00
2022-11-18T23:10:09.497Z,8.70
2022-11-18T23:11:59.941Z,9.00
2022-11-18T23:13:50.832Z,9.60
2022-11-18T23:15:22.601Z,8.50
2022-11-18T23:16:54.466Z,9.00
2022-11-18T23:18:27.339Z,8.10
2022-11-18T23:19:59.064Z,10.00
2022-11-18T23:21:31.322Z,9.80
2022-11-18T23:23:03.270Z,8.20
2022-11-18T23:24:34.990Z,7.80
2022-11-18T23:26:12.469Z,7.00
2022-11-18T23:27:44.195Z,8.00
2022-11-18T23:29:16.494Z,9.00
2022-11-18T23:30:48.237Z,8.20
2022-11-18T23:32:19.946Z,7.80
2022-11-18T23:33:53.577Z,8.80
2022-11-18T23:35:25.389Z,7.50
2022-11-18T23:36:57.198Z,7.40
2022-11-18T23:38:32.171Z,7.80
2022-11-18T23:40:04.499Z,7.50
2022-11-18T23:41:36.281Z,8.50
2022-11-18T23:43:07.986Z,7.60
2022-11-18T23:44:45.563Z,7.10
2022-11-18T23:46:18.844Z,7.40
2022-11-18T23:47:50.583Z,7.20
2022-11-18T23:49:22.345Z,8.70
2022-11-18T23:51:01.975Z,8.70
2022-11-18T23:52:33.664Z,9.80
2022-11-18T23:54:05.551Z,8.40
2022-11-18T23:55:37.291Z,12.90
2022-11-18T23:57:09.100Z,11.90
2022-11-18T23:58:43.760Z,9.90
